Garden River, Canada
Current Conditions -  °F | °C
As of 4:55 AM on Sunday 26 Oct 2014 (Local Time) from KANJ Reporting Station
Overcast Overcast  
Wind Chill: 37°   Ceiling: 2800
Heat Index: 45°   Visibility: 10mi
Dew Point: 34°   Wind: 18mph
Humidity: 65%   Direction: 310°NW
Pressure: 29.77"   Gusts: 28mph
Location:  46.55°N, 84.15°W
Report Text: KANJ 260855Z AUTO 31016G24KT 10SM OVC028 07/01 A2977 RMK AO2 SLP082 T00720011 51022
Loading
Personal Weather Stations






























Interactive Weather Map
Tropical Storm Tracking
New forecast layout! Learn more

10-Day Weather Forecast

Advertisements
Track Severe Weather on mobile